Time,TemperatureF,DewpointF,PressureIn,WindDirection,WindDirectionDegrees,WindSpeedMPH,WindSpeedGustMPH,Humidity,HourlyPrecipIn,Conditions,Clouds,dailyrainin,SolarRadiationWatts/m^2,SoftwareType,DateUTC
2013-10-28 00:01:00,43.3,34.9,29.96,West,259,2.0,4.0,72,-99.99,,,-99.99,0.0,meteohub,2013-10-28 04:01:00,
2013-10-28 00:02:00,43.3,34.9,29.96,WSW,250,1.0,4.0,72,-99.99,,,-99.99,0.0,meteohub,2013-10-28 04:02:00,
2013-10-28 00:04:00,43.3,34.5,29.96,WSW,258,2.0,4.0,71,-99.99,,,-99.99,0.0,meteohub,2013-10-28 04:04:00,
2013-10-28 00:06:00,43.3,34.9,29.96,WSW,249,1.0,4.0,72,-99.99,,,-99.99,0.0,meteohub,2013-10-28 04:06:00,
2013-10-28 00:08:00,43.3,34.9,29.96,WSW,249,2.0,4.0,72,-99.99,,,-99.99,0.0,meteohub,2013-10-28 04:08:00,
2013-10-28 00:13:00,43.3,34.5,29.96,WSW,244,2.0,5.0,71,-99.99,,,-99.99,0.0,meteohub,2013-10-28 04:13:00,
2013-10-28 00:18:00,43.2,34.3,29.96,WSW,244,0.0,5.0,71,-99.99,,,-99.99,0.0,meteohub,2013-10-28 04:18:00,
2013-10-28 00:23:00,43.2,34.0,29.96,West,279,2.0,5.0,70,-99.99,,,-99.99,0.0,meteohub,2013-10-28 04:23:00,
2013-10-28 00:29:00,43.0,34.2,29.97,West,265,1.0,4.0,71,-99.99,,,-99.99,0.0,meteohub,2013-10-28 04:29:00,
2013-10-28 00:34:00,43.0,34.5,29.97,West,263,0.0,4.0,72,-99.99,,,-99.99,0.0,meteohub,2013-10-28 04:34:00,
2013-10-28 00:39:00,43.0,34.5,29.98,West,261,1.0,4.0,72,-99.99,,,-99.99,0.0,meteohub,2013-10-28 04:39:00,
2013-10-28 00:44:00,42.8,34.0,29.98,West,261,0.0,3.0,71,-99.99,,,-99.99,0.0,meteohub,2013-10-28 04:44:00,
2013-10-28 00:49:00,42.6,33.8,29.97,WSW,257,1.0,3.0,71,-99.99,,,-99.99,0.0,meteohub,2013-10-28 04:49:00,
2013-10-28 00:54:00,42.4,34.0,29.97,WSW,255,0.0,3.0,72,-99.99,,,-99.99,0.0,meteohub,2013-10-28 04:54:00,
2013-10-28 00:59:00,42.4,34.0,29.97,WSW,255,0.0,3.0,72,-99.99,,,-99.99,0.0,meteohub,2013-10-28 04:59:00,
2013-10-28 01:04:00,42.1,34.3,29.98,WSW,255,0.0,3.0,74,-99.99,,,-99.99,0.0,meteohub,2013-10-28 05:04:00,
2013-10-28 01:09:00,41.9,34.2,29.98,West,271,1.0,3.0,74,-99.99,,,-99.99,0.0,meteohub,2013-10-28 05:09:00,
2013-10-28 01:15:00,42.1,34.3,29.98,WSW,257,1.0,2.0,74,-99.99,,,-99.99,0.0,meteohub,2013-10-28 05:15:00,
2013-10-28 01:20:00,42.1,35.1,29.98,WSW,255,1.0,4.0,76,-99.99,,,-99.99,0.0,meteohub,2013-10-28 05:20:00,
2013-10-28 01:25:00,42.1,34.0,29.98,WSW,255,1.0,4.0,73,-99.99,,,-99.99,0.0,meteohub,2013-10-28 05:25:00,
2013-10-28 01:30:00,42.1,34.3,29.98,West,271,0.0,4.0,74,-99.99,,,-99.99,0.0,meteohub,2013-10-28 05:30:00,
2013-10-28 01:35:00,41.9,33.8,29.98,West,271,0.0,3.0,73,-99.99,,,-99.99,0.0,meteohub,2013-10-28 05:35:00,
2013-10-28 01:40:00,41.7,34.0,29.98,WSW,255,2.0,3.0,74,-99.99,,,-99.99,0.0,meteohub,2013-10-28 05:40:00,
2013-10-28 01:45:00,41.7,33.6,29.98,WSW,248,2.0,3.0,73,-99.99,,,-99.99,0.0,meteohub,2013-10-28 05:45:00,
2013-10-28 01:50:00,41.9,33.6,29.98,WSW,240,2.0,4.0,72,-99.99,,,-99.99,0.0,meteohub,2013-10-28 05:50:00,
2013-10-28 01:55:00,42.1,33.4,29.99,WSW,240,2.0,7.0,71,-99.99,,,-99.99,0.0,meteohub,2013-10-28 05:55:00,
2013-10-28 02:00:00,41.7,33.4,29.99,WSW,254,1.0,7.0,72,-99.99,,,-99.99,0.0,meteohub,2013-10-28 06:00:00,
2013-10-28 02:05:00,41.7,33.1,29.99,WSW,253,3.0,7.0,71,-99.99,,,-99.99,0.0,meteohub,2013-10-28 06:05:00,
2013-10-28 02:11:00,41.7,33.1,29.99,WSW,248,3.0,6.0,71,-99.99,,,-99.99,0.0,meteohub,2013-10-28 06:11:00,
2013-10-28 02:16:00,41.9,33.6,29.99,West,263,3.0,6.0,72,-99.99,,,-99.99,0.0,meteohub,2013-10-28 06:16:00,
2013-10-28 02:21:00,41.9,33.8,29.98,WSW,246,3.0,6.0,73,-99.99,,,-99.99,0.0,meteohub,2013-10-28 06:21:00,
2013-10-28 02:26:00,41.7,34.0,29.98,WSW,252,3.0,6.0,74,-99.99,,,-99.99,0.0,meteohub,2013-10-28 06:26:00,
2013-10-28 02:31:00,41.7,34.0,29.98,WSW,239,4.0,6.0,74,-99.99,,,-99.99,0.0,meteohub,2013-10-28 06:31:00,
2013-10-28 02:36:00,41.7,34.0,29.98,West,265,3.0,6.0,74,-99.99,,,-99.99,0.0,meteohub,2013-10-28 06:36:00,
2013-10-28 02:41:00,41.7,33.6,29.99,WSW,248,3.0,5.0,73,-99.99,,,-99.99,0.0,meteohub,2013-10-28 06:41:00,
2013-10-28 02:46:00,41.7,33.1,29.99,WSW,246,1.0,5.0,71,-99.99,,,-99.99,0.0,meteohub,2013-10-28 06:46:00,
2013-10-28 02:52:00,41.7,33.1,29.99,WSW,250,0.0,5.0,71,-99.99,,,-99.99,0.0,meteohub,2013-10-28 06:52:00,
2013-10-28 02:57:00,41.5,33.3,29.99,WSW,250,0.0,5.0,72,-99.99,,,-99.99,0.0,meteohub,2013-10-28 06:57:00,
2013-10-28 03:02:00,41.5,33.3,29.99,WSW,248,0.0,5.0,72,-99.99,,,-99.99,0.0,meteohub,2013-10-28 07:02:00,
2013-10-28 03:07:00,41.4,33.4,29.99,WSW,248,1.0,2.0,73,-99.99,,,-99.99,0.0,meteohub,2013-10-28 07:07:00,
2013-10-28 03:12:00,41.2,33.4,29.99,WSW,248,1.0,2.0,74,-99.99,,,-99.99,0.0,meteohub,2013-10-28 07:12:00,
2013-10-28 03:17:00,41.0,33.4,29.99,WSW,238,0.0,2.0,74,-99.99,,,-99.99,0.0,meteohub,2013-10-28 07:17:00,
2013-10-28 03:22:00,40.8,33.3,30.00,WSW,238,0.0,2.0,74,-99.99,,,-99.99,0.0,meteohub,2013-10-28 07:22:00,
2013-10-28 03:27:00,40.6,33.1,30.00,West,277,0.0,2.0,74,-99.99,,,-99.99,0.0,meteohub,2013-10-28 07:27:00,
2013-10-28 03:32:00,40.5,32.9,30.00,West,277,0.0,2.0,74,-99.99,,,-99.99,0.0,meteohub,2013-10-28 07:32:00,
2013-10-28 03:37:00,40.8,33.3,30.00,West,267,1.0,2.0,74,-99.99,,,-99.99,0.0,meteohub,2013-10-28 07:37:00,
2013-10-28 03:42:00,41.0,33.1,30.00,West,267,1.0,3.0,73,-99.99,,,-99.99,0.0,meteohub,2013-10-28 07:42:00,
2013-10-28 03:47:00,41.0,33.4,30.00,West,259,0.0,3.0,74,-99.99,,,-99.99,0.0,meteohub,2013-10-28 07:47:00,
2013-10-28 03:52:00,40.8,33.3,30.00,West,259,0.0,3.0,74,-99.99,,,-99.99,0.0,meteohub,2013-10-28 07:52:00,
2013-10-28 03:57:00,40.8,33.4,30.00,West,259,1.0,2.0,75,-99.99,,,-99.99,0.0,meteohub,2013-10-28 07:57:00,
2013-10-28 04:02:00,41.4,34.0,30.01,West,259,1.0,3.0,75,-99.99,,,-99.99,0.0,meteohub,2013-10-28 08:02:00,
2013-10-28 04:07:00,41.7,33.6,30.01,West,262,2.0,3.0,73,-99.99,,,-99.99,0.0,meteohub,2013-10-28 08:07:00,
2013-10-28 04:12:00,42.1,34.0,30.01,WSW,250,1.0,3.0,73,-99.99,,,-99.99,0.0,meteohub,2013-10-28 08:12:00,
2013-10-28 04:17:00,41.9,33.3,30.01,WSW,247,1.0,5.0,71,-99.99,,,-99.99,0.0,meteohub,2013-10-28 08:17:00,
2013-10-28 04:22:00,42.1,34.0,30.01,WSW,253,2.0,5.0,73,-99.99,,,-99.99,0.0,meteohub,2013-10-28 08:22:00,
2013-10-28 04:27:00,42.1,34.0,30.01,WSW,252,1.0,5.0,73,-99.99,,,-99.99,0.0,meteohub,2013-10-28 08:27:00,
2013-10-28 04:32:00,41.9,34.2,30.00,WSW,252,0.0,4.0,74,-99.99,,,-99.99,0.0,meteohub,2013-10-28 08:32:00,
2013-10-28 04:37:00,41.9,34.2,30.00,WSW,252,0.0,4.0,74,-99.99,,,-99.99,0.0,meteohub,2013-10-28 08:37:00,
2013-10-28 04:42:00,41.9,34.2,30.00,WSW,253,0.0,4.0,74,-99.99,,,-99.99,0.0,meteohub,2013-10-28 08:42:00,
2013-10-28 04:47:00,42.1,34.7,30.01,WSW,248,3.0,4.0,75,-99.99,,,-99.99,0.0,meteohub,2013-10-28 08:47:00,
2013-10-28 04:52:00,42.1,34.3,30.01,WSW,248,3.0,5.0,74,-99.99,,,-99.99,0.0,meteohub,2013-10-28 08:52:00,
2013-10-28 04:57:00,42.1,34.3,30.01,WSW,249,0.0,5.0,74,-99.99,,,-99.99,0.0,meteohub,2013-10-28 08:57:00,
2013-10-28 05:02:00,42.3,34.9,30.01,WSW,256,0.0,5.0,75,-99.99,,,-99.99,0.0,meteohub,2013-10-28 09:02:00,
2013-10-28 05:07:00,42.3,34.9,30.01,WSW,255,1.0,3.0,75,-99.99,,,-99.99,0.0,meteohub,2013-10-28 09:07:00,
2013-10-28 05:12:00,42.3,35.2,30.01,WSW,256,1.0,2.0,76,-99.99,,,-99.99,0.0,meteohub,2013-10-28 09:12:00,
2013-10-28 05:17:00,42.4,35.8,30.01,West,260,3.0,3.0,77,-99.99,,,-99.99,0.0,meteohub,2013-10-28 09:17:00,
2013-10-28 05:22:00,42.4,35.8,30.02,WSW,257,1.0,3.0,77,-99.99,,,-99.99,0.0,meteohub,2013-10-28 09:22:00,
2013-10-28 05:27:00,42.6,35.6,30.02,WSW,241,2.0,3.0,76,-99.99,,,-99.99,0.0,meteohub,2013-10-28 09:27:00,
2013-10-28 05:32:00,43.0,36.0,30.02,West,259,0.0,4.0,76,-99.99,,,-99.99,0.0,meteohub,2013-10-28 09:32:00,
2013-10-28 05:37:00,43.2,36.1,30.02,West,259,1.0,4.0,76,-99.99,,,-99.99,0.0,meteohub,2013-10-28 09:37:00,
2013-10-28 05:43:00,43.2,35.8,30.02,West,260,2.0,3.0,75,-99.99,,,-99.99,0.0,meteohub,2013-10-28 09:43:00,
2013-10-28 05:48:00,43.3,36.0,30.02,WSW,248,1.0,3.0,75,-99.99,,,-99.99,0.0,meteohub,2013-10-28 09:48:00,
2013-10-28 05:53:00,43.3,35.6,30.02,WSW,248,0.0,4.0,74,-99.99,,,-99.99,0.0,meteohub,2013-10-28 09:53:00,
2013-10-28 05:58:00,43.3,36.0,30.02,WSW,242,1.0,4.0,75,-99.99,,,-99.99,0.0,meteohub,2013-10-28 09:58:00,
2013-10-28 06:03:00,43.2,35.8,30.02,WSW,248,2.0,4.0,75,-99.99,,,-99.99,0.0,meteohub,2013-10-28 10:03:00,
2013-10-28 06:08:00,43.2,35.8,30.02,WSW,251,0.0,5.0,75,-99.99,,,-99.99,0.0,meteohub,2013-10-28 10:08:00,
2013-10-28 06:13:00,43.2,36.1,30.02,SE,128,0.0,5.0,76,-99.99,,,-99.99,0.0,meteohub,2013-10-28 10:13:00,
2013-10-28 06:19:00,43.2,36.1,30.02,South,185,0.0,5.0,76,-99.99,,,-99.99,0.0,meteohub,2013-10-28 10:19:00,
2013-10-28 06:24:00,43.2,36.5,30.02,WNW,283,0.0,2.0,77,-99.99,,,-99.99,0.0,meteohub,2013-10-28 10:24:00,
2013-10-28 06:29:00,43.2,36.5,30.02,SW,229,0.0,2.0,77,-99.99,,,-99.99,0.0,meteohub,2013-10-28 10:29:00,
2013-10-28 06:34:00,43.2,36.7,30.02,NNW,334,0.0,2.0,78,-99.99,,,-99.99,0.0,meteohub,2013-10-28 10:34:00,
2013-10-28 06:39:00,43.2,36.1,30.02,South,175,1.0,2.0,76,-99.99,,,-99.99,0.0,meteohub,2013-10-28 10:39:00,
2013-10-28 06:44:00,43.2,36.1,30.02,West,275,0.0,3.0,76,-99.99,,,-99.99,0.0,meteohub,2013-10-28 10:44:00,
2013-10-28 06:49:00,43.2,36.1,30.02,West,264,0.0,3.0,76,-99.99,,,-99.99,0.0,meteohub,2013-10-28 10:49:00,
2013-10-28 06:54:00,43.2,35.8,30.02,WSW,249,1.0,3.0,75,-99.99,,,-99.99,0.0,meteohub,2013-10-28 10:54:00,
2013-10-28 06:59:00,43.3,36.0,30.02,SW,219,0.0,3.0,75,-99.99,,,-99.99,0.0,meteohub,2013-10-28 10:59:00,
2013-10-28 07:05:00,43.3,36.0,30.02,SSW,202,0.0,6.0,75,-99.99,,,-99.99,0.0,meteohub,2013-10-28 11:05:00,
2013-10-28 07:10:00,43.3,36.3,30.02,WNW,297,2.0,6.0,76,-99.99,,,-99.99,5.0,meteohub,2013-10-28 11:10:00,
2013-10-28 07:15:00,43.5,36.5,30.03,South,171,2.0,6.0,76,-99.99,,,-99.99,9.0,meteohub,2013-10-28 11:15:00,
2013-10-28 07:20:00,43.9,36.9,30.03,West,269,2.0,5.0,76,-99.99,,,-99.99,14.0,meteohub,2013-10-28 11:20:00,
2013-10-28 07:25:00,44.1,36.3,30.03,East,84,1.0,5.0,74,-99.99,,,-99.99,19.0,meteohub,2013-10-28 11:25:00,
2013-10-28 07:30:00,44.4,36.0,30.03,WSW,257,1.0,6.0,72,-99.99,,,-99.99,19.0,meteohub,2013-10-28 11:30:00,
2013-10-28 07:35:00,44.4,36.3,30.04,South,184,1.0,6.0,73,-99.99,,,-99.99,19.0,meteohub,2013-10-28 11:35:00,
2013-10-28 07:40:00,44.6,37.2,30.04,WSW,252,1.0,8.0,75,-99.99,,,-99.99,33.0,meteohub,2013-10-28 11:40:00,
2013-10-28 07:45:00,44.8,38.3,30.04,SE,142,2.0,8.0,78,-99.99,,,-99.99,47.0,meteohub,2013-10-28 11:45:00,
2013-10-28 07:51:00,45.1,38.3,30.04,West,275,2.0,8.0,77,-99.99,,,-99.99,53.0,meteohub,2013-10-28 11:51:00,
2013-10-28 07:56:00,45.1,38.3,30.04,West,273,6.0,6.0,77,-99.99,,,-99.99,47.0,meteohub,2013-10-28 11:56:00,
2013-10-28 08:01:00,45.1,37.9,30.04,West,271,2.0,6.0,76,-99.99,,,-99.99,44.0,meteohub,2013-10-28 12:01:00,
2013-10-28 08:06:00,45.1,37.9,30.04,WSW,247,0.0,6.0,76,-99.99,,,-99.99,67.0,meteohub,2013-10-28 12:06:00,
2013-10-28 08:11:00,45.1,37.9,30.04,WNW,298,0.0,6.0,76,-99.99,,,-99.99,62.0,meteohub,2013-10-28 12:11:00,
2013-10-28 08:16:00,45.1,37.9,30.04,West,265,1.0,5.0,76,-99.99,,,-99.99,60.0,meteohub,2013-10-28 12:16:00,
2013-10-28 08:21:00,45.1,37.8,30.05,WSW,245,0.0,4.0,75,-99.99,,,-99.99,53.0,meteohub,2013-10-28 12:21:00,
2013-10-28 08:26:00,45.3,37.9,30.05,WSW,251,1.0,4.0,75,-99.99,,,-99.99,44.0,meteohub,2013-10-28 12:26:00,
2013-10-28 08:31:00,45.3,38.1,30.05,West,277,0.0,5.0,76,-99.99,,,-99.99,51.0,meteohub,2013-10-28 12:31:00,
2013-10-28 08:37:00,45.5,38.3,30.05,West,266,1.0,5.0,76,-99.99,,,-99.99,49.0,meteohub,2013-10-28 12:37:00,
2013-10-28 08:42:00,45.7,38.8,30.05,West,266,0.0,5.0,77,-99.99,,,-99.99,72.0,meteohub,2013-10-28 12:42:00,
2013-10-28 08:47:00,45.9,38.3,30.05,West,259,1.0,3.0,75,-99.99,,,-99.99,95.0,meteohub,2013-10-28 12:47:00,
2013-10-28 08:52:00,45.9,37.4,30.05,West,271,0.0,4.0,72,-99.99,,,-99.99,163.0,meteohub,2013-10-28 12:52:00,
2013-10-28 08:57:00,46.0,37.9,30.05,West,259,0.0,4.0,73,-99.99,,,-99.99,134.0,meteohub,2013-10-28 12:57:00,
2013-10-28 09:02:00,46.2,38.1,30.05,West,260,1.0,4.0,73,-99.99,,,-99.99,174.0,meteohub,2013-10-28 13:02:00,
2013-10-28 09:07:00,46.4,37.9,30.05,West,275,1.0,3.0,72,-99.99,,,-99.99,190.0,meteohub,2013-10-28 13:07:00,
2013-10-28 09:12:00,46.6,36.1,30.05,WSW,250,0.0,3.0,67,-99.99,,,-99.99,181.0,meteohub,2013-10-28 13:12:00,
2013-10-28 09:17:00,46.8,37.2,30.05,WSW,248,0.0,3.0,69,-99.99,,,-99.99,123.0,meteohub,2013-10-28 13:17:00,
2013-10-28 09:22:00,46.8,37.6,30.04,West,263,1.0,3.0,70,-99.99,,,-99.99,109.0,meteohub,2013-10-28 13:22:00,
2013-10-28 09:27:00,46.8,37.6,30.04,West,269,3.0,4.0,70,-99.99,,,-99.99,100.0,meteohub,2013-10-28 13:27:00,
2013-10-28 09:32:00,46.8,37.9,30.04,SSW,202,0.0,4.0,71,-99.99,,,-99.99,213.0,meteohub,2013-10-28 13:32:00,
2013-10-28 09:37:00,46.8,37.6,30.04,South,174,0.0,4.0,70,-99.99,,,-99.99,141.0,meteohub,2013-10-28 13:37:00,
2013-10-28 09:42:00,46.8,37.6,30.04,SSW,196,2.0,4.0,70,-99.99,,,-99.99,146.0,meteohub,2013-10-28 13:42:00,
2013-10-28 09:47:00,46.8,38.3,30.04,West,269,0.0,6.0,72,-99.99,,,-99.99,148.0,meteohub,2013-10-28 13:47:00,
2013-10-28 09:52:00,46.8,37.6,30.04,SSW,205,0.0,6.0,70,-99.99,,,-99.99,227.0,meteohub,2013-10-28 13:52:00,
2013-10-28 09:57:00,47.1,37.8,30.04,SW,225,3.0,6.0,70,-99.99,,,-99.99,202.0,meteohub,2013-10-28 13:57:00,
2013-10-28 10:02:00,47.3,37.2,30.04,WSW,253,1.0,6.0,68,-99.99,,,-99.99,139.0,meteohub,2013-10-28 14:02:00,
2013-10-28 10:07:00,47.3,36.9,30.03,North,355,0.0,6.0,67,-99.99,,,-99.99,172.0,meteohub,2013-10-28 14:07:00,
2013-10-28 10:13:00,47.5,37.0,30.03,SSE,157,2.0,6.0,67,-99.99,,,-99.99,160.0,meteohub,2013-10-28 14:13:00,
2013-10-28 10:18:00,47.8,36.7,30.03,ESE,115,2.0,5.0,65,-99.99,,,-99.99,290.0,meteohub,2013-10-28 14:18:00,
2013-10-28 10:23:00,48.2,36.7,30.03,West,271,2.0,6.0,64,-99.99,,,-99.99,371.0,meteohub,2013-10-28 14:23:00,
2013-10-28 10:28:00,48.7,37.0,30.03,SE,126,1.0,6.0,64,-99.99,,,-99.99,450.0,meteohub,2013-10-28 14:28:00,
2013-10-28 10:33:00,49.3,37.6,30.03,West,270,1.0,6.0,64,-99.99,,,-99.99,461.0,meteohub,2013-10-28 14:33:00,
2013-10-28 10:38:00,49.3,37.9,30.03,South,186,3.0,5.0,65,-99.99,,,-99.99,388.0,meteohub,2013-10-28 14:38:00,
2013-10-28 10:43:00,49.3,37.2,30.03,SSW,206,0.0,8.0,63,-99.99,,,-99.99,223.0,meteohub,2013-10-28 14:43:00,
2013-10-28 10:49:00,48.9,36.9,30.03,SSE,157,1.0,8.0,63,-99.99,,,-99.99,223.0,meteohub,2013-10-28 14:49:00,
2013-10-28 10:54:00,48.9,37.8,30.03,SW,232,2.0,9.0,65,-99.99,,,-99.99,244.0,meteohub,2013-10-28 14:54:00,
2013-10-28 10:59:00,49.3,37.9,30.02,SW,223,3.0,9.0,65,-99.99,,,-99.99,330.0,meteohub,2013-10-28 14:59:00,
2013-10-28 11:04:00,49.5,38.1,30.02,SSW,204,0.0,9.0,65,-99.99,,,-99.99,424.0,meteohub,2013-10-28 15:04:00,
2013-10-28 11:09:00,50.2,39.2,30.02,SE,132,1.0,7.0,66,-99.99,,,-99.99,367.0,meteohub,2013-10-28 15:09:00,
2013-10-28 11:14:00,50.4,39.4,30.01,ESE,103,2.0,7.0,66,-99.99,,,-99.99,322.0,meteohub,2013-10-28 15:14:00,
2013-10-28 11:19:00,50.4,40.3,30.01,South,182,1.0,7.0,68,-99.99,,,-99.99,202.0,meteohub,2013-10-28 15:19:00,
2013-10-28 11:24:00,50.2,40.8,30.01,WSW,238,2.0,7.0,70,-99.99,,,-99.99,165.0,meteohub,2013-10-28 15:24:00,
2013-10-28 11:29:00,50.2,39.2,30.01,WSW,256,0.0,7.0,66,-99.99,,,-99.99,113.0,meteohub,2013-10-28 15:29:00,
2013-10-28 11:34:00,49.8,40.1,30.01,East,89,3.0,6.0,69,-99.99,,,-99.99,132.0,meteohub,2013-10-28 15:34:00,
2013-10-28 11:40:00,50.2,40.1,30.01,South,183,1.0,10.0,68,-99.99,,,-99.99,214.0,meteohub,2013-10-28 15:40:00,
2013-10-28 11:45:00,50.5,39.9,30.00,NNE,31,2.0,10.0,67,-99.99,,,-99.99,97.0,meteohub,2013-10-28 15:45:00,
2013-10-28 11:50:00,50.7,40.5,30.00,East,80,0.0,10.0,68,-99.99,,,-99.99,111.0,meteohub,2013-10-28 15:50:00,
2013-10-28 11:55:00,51.3,41.0,30.00,WSW,252,3.0,7.0,68,-99.99,,,-99.99,163.0,meteohub,2013-10-28 15:55:00,
2013-10-28 12:00:00,51.3,41.4,30.00,South,175,2.0,7.0,69,-99.99,,,-99.99,149.0,meteohub,2013-10-28 16:00:00,
2013-10-28 12:05:00,51.3,40.3,30.00,SW,227,1.0,9.0,66,-99.99,,,-99.99,165.0,meteohub,2013-10-28 16:05:00,
2013-10-28 12:10:00,51.3,40.6,29.99,WSW,255,4.0,8.0,67,-99.99,,,-99.99,221.0,meteohub,2013-10-28 16:10:00,
2013-10-28 12:15:00,51.1,41.2,29.99,SW,230,2.0,8.0,69,-99.99,,,-99.99,179.0,meteohub,2013-10-28 16:15:00,
2013-10-28 12:20:00,51.4,40.8,29.99,WSW,258,6.0,9.0,67,-99.99,,,-99.99,174.0,meteohub,2013-10-28 16:20:00,
2013-10-28 12:25:00,51.3,40.3,29.99,WNW,296,1.0,9.0,66,-99.99,,,-99.99,213.0,meteohub,2013-10-28 16:25:00,
2013-10-28 12:31:00,51.1,40.5,29.98,West,269,2.0,13.0,67,-99.99,,,-99.99,181.0,meteohub,2013-10-28 16:31:00,
2013-10-28 12:36:00,50.7,40.1,29.98,SSW,207,1.0,13.0,67,-99.99,,,-99.99,105.0,meteohub,2013-10-28 16:36:00,
2013-10-28 12:41:00,50.7,41.4,29.99,WSW,254,2.0,13.0,70,-99.99,,,-99.99,93.0,meteohub,2013-10-28 16:41:00,
2013-10-28 12:46:00,50.5,40.5,29.99,SSE,162,1.0,10.0,68,-99.99,,,-99.99,111.0,meteohub,2013-10-28 16:46:00,
2013-10-28 12:51:00,50.7,40.5,29.98,SSE,154,2.0,14.0,68,-99.99,,,-99.99,76.0,meteohub,2013-10-28 16:51:00,
2013-10-28 12:56:00,51.1,40.8,29.99,West,281,0.0,14.0,68,-99.99,,,-99.99,171.0,meteohub,2013-10-28 16:56:00,
2013-10-28 13:01:00,51.4,41.9,29.98,West,266,5.0,14.0,70,-99.99,,,-99.99,160.0,meteohub,2013-10-28 17:01:00,
2013-10-28 13:06:00,51.4,41.5,29.98,West,274,0.0,8.0,69,-99.99,,,-99.99,132.0,meteohub,2013-10-28 17:06:00,
2013-10-28 13:12:00,51.4,41.5,29.98,NNE,13,2.0,8.0,69,-99.99,,,-99.99,160.0,meteohub,2013-10-28 17:12:00,
2013-10-28 13:17:00,51.6,42.1,29.99,WSW,257,1.0,8.0,70,-99.99,,,-99.99,172.0,meteohub,2013-10-28 17:17:00,
2013-10-28 13:22:00,51.8,42.3,29.98,SW,222,3.0,8.0,70,-99.99,,,-99.99,209.0,meteohub,2013-10-28 17:22:00,
2013-10-28 13:27:00,52.0,42.1,29.98,WSW,254,0.0,8.0,69,-99.99,,,-99.99,308.0,meteohub,2013-10-28 17:27:00,
2013-10-28 13:32:00,52.2,42.6,29.99,East,81,2.0,11.0,70,-99.99,,,-99.99,144.0,meteohub,2013-10-28 17:32:00,
2013-10-28 13:37:00,52.2,42.3,29.98,South,189,2.0,11.0,69,-99.99,,,-99.99,274.0,meteohub,2013-10-28 17:37:00,
2013-10-28 13:42:00,52.2,41.9,29.98,SSE,152,5.0,11.0,68,-99.99,,,-99.99,264.0,meteohub,2013-10-28 17:42:00,
2013-10-28 13:47:00,52.2,41.9,29.99,SW,221,3.0,9.0,68,-99.99,,,-99.99,411.0,meteohub,2013-10-28 17:47:00,
2013-10-28 13:52:00,52.2,41.9,29.99,WSW,237,2.0,9.0,68,-99.99,,,-99.99,276.0,meteohub,2013-10-28 17:52:00,
2013-10-28 13:57:00,52.3,41.7,29.99,SW,224,2.0,9.0,67,-99.99,,,-99.99,128.0,meteohub,2013-10-28 17:57:00,
2013-10-28 14:02:00,52.0,41.7,29.99,SSW,209,5.0,9.0,68,-99.99,,,-99.99,151.0,meteohub,2013-10-28 18:02:00,
2013-10-28 14:07:00,51.6,41.4,29.99,SW,234,3.0,11.0,68,-99.99,,,-99.99,86.0,meteohub,2013-10-28 18:07:00,
2013-10-28 14:12:00,51.4,41.2,29.99,WSW,256,3.0,11.0,68,-99.99,,,-99.99,54.0,meteohub,2013-10-28 18:12:00,
2013-10-28 14:17:00,51.3,41.9,29.99,WSW,247,0.0,7.0,70,-99.99,,,-99.99,49.0,meteohub,2013-10-28 18:17:00,
2013-10-28 14:22:00,51.3,41.4,29.99,WSW,244,2.0,7.0,69,-99.99,,,-99.99,69.0,meteohub,2013-10-28 18:22:00,
2013-10-28 14:27:00,51.3,42.3,29.99,WSW,238,0.0,7.0,71,-99.99,,,-99.99,54.0,meteohub,2013-10-28 18:27:00,
2013-10-28 14:32:00,51.3,42.3,29.99,NW,325,0.0,7.0,71,-99.99,,,-99.99,67.0,meteohub,2013-10-28 18:32:00,
2013-10-28 14:37:00,51.4,43.2,30.00,West,279,2.0,5.0,73,-99.99,,,-99.99,118.0,meteohub,2013-10-28 18:37:00,
2013-10-28 14:42:00,51.4,43.5,30.00,SW,236,4.0,5.0,74,-99.99,,,-99.99,135.0,meteohub,2013-10-28 18:42:00,
2013-10-28 14:47:00,51.6,43.3,30.00,West,273,3.0,6.0,73,-99.99,,,-99.99,141.0,meteohub,2013-10-28 18:47:00,
2013-10-28 14:52:00,51.6,43.3,30.00,WSW,241,1.0,6.0,73,-99.99,,,-99.99,79.0,meteohub,2013-10-28 18:52:00,
2013-10-28 14:58:00,52.0,43.2,30.00,WSW,253,2.0,4.0,72,-99.99,,,-99.99,107.0,meteohub,2013-10-28 18:58:00,
2013-10-28 15:03:00,52.2,43.0,30.00,West,263,2.0,6.0,71,-99.99,,,-99.99,227.0,meteohub,2013-10-28 19:03:00,
2013-10-28 15:08:00,52.3,43.5,30.00,WSW,254,5.0,6.0,72,-99.99,,,-99.99,260.0,meteohub,2013-10-28 19:08:00,
2013-10-28 15:13:00,52.7,42.1,30.01,WSW,252,2.0,6.0,67,-99.99,,,-99.99,137.0,meteohub,2013-10-28 19:13:00,
2013-10-28 15:18:00,52.9,39.4,30.01,WSW,246,4.0,7.0,60,-99.99,,,-99.99,74.0,meteohub,2013-10-28 19:18:00,
2013-10-28 15:23:00,53.1,39.9,30.01,SW,233,8.0,11.0,61,-99.99,,,-99.99,81.0,meteohub,2013-10-28 19:23:00,
2013-10-28 15:28:00,52.9,39.0,30.02,WSW,240,6.0,11.0,59,-99.99,,,-99.99,100.0,meteohub,2013-10-28 19:28:00,
2013-10-28 15:33:00,53.1,38.7,30.01,WSW,237,7.0,11.0,58,-99.99,,,-99.99,97.0,meteohub,2013-10-28 19:33:00,
2013-10-28 15:39:00,53.1,38.7,30.02,WSW,248,3.0,10.0,58,-99.99,,,-99.99,90.0,meteohub,2013-10-28 19:39:00,
2013-10-28 15:44:00,52.9,38.5,30.03,West,260,5.0,11.0,58,-99.99,,,-99.99,42.0,meteohub,2013-10-28 19:44:00,
2013-10-28 15:49:00,52.5,38.7,30.04,WSW,244,6.0,11.0,59,-99.99,,,-99.99,18.0,meteohub,2013-10-28 19:49:00,
2013-10-28 15:54:00,51.3,38.3,30.05,WSW,255,7.0,12.0,61,-99.99,,,-99.99,19.0,meteohub,2013-10-28 19:54:00,
2013-10-28 15:59:00,50.4,38.7,30.05,WSW,254,8.0,14.0,64,-99.99,,,-99.99,18.0,meteohub,2013-10-28 19:59:00,
2013-10-28 16:04:00,49.8,37.8,30.06,West,273,9.0,14.0,63,-99.99,,,-99.99,42.0,meteohub,2013-10-28 20:04:00,
2013-10-28 16:09:00,49.5,39.0,30.06,WSW,237,9.0,14.0,67,-99.99,,,-99.99,46.0,meteohub,2013-10-28 20:09:00,
2013-10-28 16:14:00,49.1,39.7,30.06,West,263,8.0,16.0,70,-99.99,,,-99.99,47.0,meteohub,2013-10-28 20:14:00,
2013-10-28 16:19:00,48.9,40.6,30.07,WSW,252,9.0,17.0,73,-99.99,,,-99.99,51.0,meteohub,2013-10-28 20:19:00,
2013-10-28 16:24:00,48.4,40.1,30.07,WSW,257,10.0,17.0,73,-99.99,,,-99.99,33.0,meteohub,2013-10-28 20:24:00,
2013-10-28 16:30:00,48.0,38.3,30.07,WSW,258,12.0,15.0,69,-99.99,,,-99.99,47.0,meteohub,2013-10-28 20:30:00,
2013-10-28 16:35:00,48.0,37.9,30.08,West,267,8.0,15.0,68,-99.99,,,-99.99,56.0,meteohub,2013-10-28 20:35:00,
2013-10-28 16:40:00,48.0,37.6,30.08,West,261,12.0,15.0,67,-99.99,,,-99.99,46.0,meteohub,2013-10-28 20:40:00,
2013-10-28 16:45:00,47.8,36.7,30.08,West,269,7.0,15.0,65,-99.99,,,-99.99,44.0,meteohub,2013-10-28 20:45:00,
2013-10-28 16:50:00,47.7,36.5,30.09,WSW,256,8.0,14.0,65,-99.99,,,-99.99,28.0,meteohub,2013-10-28 20:50:00,
2013-10-28 16:55:00,47.7,37.2,30.09,West,259,7.0,14.0,67,-99.99,,,-99.99,23.0,meteohub,2013-10-28 20:55:00,
2013-10-28 17:00:00,47.7,36.9,30.09,WSW,258,9.0,14.0,66,-99.99,,,-99.99,19.0,meteohub,2013-10-28 21:00:00,
2013-10-28 17:05:00,47.5,37.0,30.10,West,263,7.0,12.0,67,-99.99,,,-99.99,16.0,meteohub,2013-10-28 21:05:00,
2013-10-28 17:10:00,47.5,37.4,30.10,WSW,254,6.0,11.0,68,-99.99,,,-99.99,12.0,meteohub,2013-10-28 21:10:00,
2013-10-28 17:15:00,47.3,36.5,30.11,WSW,252,10.0,12.0,66,-99.99,,,-99.99,11.0,meteohub,2013-10-28 21:15:00,
2013-10-28 17:20:00,47.1,35.2,30.11,WSW,257,6.0,12.0,63,-99.99,,,-99.99,7.0,meteohub,2013-10-28 21:20:00,
2013-10-28 17:26:00,46.9,34.5,30.11,West,265,10.0,12.0,62,-99.99,,,-99.99,5.0,meteohub,2013-10-28 21:26:00,
2013-10-28 17:31:00,46.9,34.5,30.12,West,259,8.0,14.0,62,-99.99,,,-99.99,0.0,meteohub,2013-10-28 21:31:00,
2013-10-28 17:36:00,46.8,34.9,30.12,West,276,6.0,14.0,63,-99.99,,,-99.99,0.0,meteohub,2013-10-28 21:36:00,
2013-10-28 17:41:00,46.6,34.3,30.12,West,259,7.0,14.0,62,-99.99,,,-99.99,0.0,meteohub,2013-10-28 21:41:00,
2013-10-28 17:46:00,46.8,34.9,30.13,WSW,252,7.0,12.0,63,-99.99,,,-99.99,0.0,meteohub,2013-10-28 21:46:00,
2013-10-28 17:51:00,46.4,33.6,30.13,West,268,6.0,14.0,61,-99.99,,,-99.99,0.0,meteohub,2013-10-28 21:51:00,
2013-10-28 17:57:00,46.2,31.8,30.13,West,261,7.0,14.0,57,-99.99,,,-99.99,0.0,meteohub,2013-10-28 21:57:00,
2013-10-28 18:02:00,46.0,30.7,30.14,West,259,6.0,14.0,55,-99.99,,,-99.99,0.0,meteohub,2013-10-28 22:02:00,
2013-10-28 18:07:00,45.7,31.8,30.14,WSW,249,7.0,14.0,58,-99.99,,,-99.99,0.0,meteohub,2013-10-28 22:07:00,
2013-10-28 18:12:00,45.5,32.4,30.15,West,262,8.0,15.0,60,-99.99,,,-99.99,0.0,meteohub,2013-10-28 22:12:00,
2013-10-28 18:17:00,45.1,32.0,30.16,West,276,6.0,15.0,60,-99.99,,,-99.99,0.0,meteohub,2013-10-28 22:17:00,
2013-10-28 18:22:00,45.1,32.5,30.16,West,265,9.0,14.0,61,-99.99,,,-99.99,0.0,meteohub,2013-10-28 22:22:00,
2013-10-28 18:27:00,45.0,32.4,30.16,WSW,255,10.0,13.0,61,-99.99,,,-99.99,0.0,meteohub,2013-10-28 22:27:00,
2013-10-28 18:32:00,45.0,33.1,30.16,WSW,248,11.0,13.0,63,-99.99,,,-99.99,0.0,meteohub,2013-10-28 22:32:00,
2013-10-28 18:37:00,45.0,32.7,30.17,West,267,8.0,16.0,62,-99.99,,,-99.99,0.0,meteohub,2013-10-28 22:37:00,
2013-10-28 18:42:00,44.8,32.5,30.18,WSW,254,8.0,16.0,62,-99.99,,,-99.99,0.0,meteohub,2013-10-28 22:42:00,
2013-10-28 18:47:00,44.6,32.7,30.19,West,267,6.0,16.0,63,-99.99,,,-99.99,0.0,meteohub,2013-10-28 22:47:00,
2013-10-28 18:52:00,44.4,32.5,30.19,West,259,6.0,13.0,63,-99.99,,,-99.99,0.0,meteohub,2013-10-28 22:52:00,
2013-10-28 18:57:00,44.2,32.4,30.20,WSW,250,7.0,11.0,63,-99.99,,,-99.99,0.0,meteohub,2013-10-28 22:57:00,
2013-10-28 19:02:00,44.1,31.8,30.20,West,273,6.0,11.0,62,-99.99,,,-99.99,0.0,meteohub,2013-10-28 23:02:00,
2013-10-28 19:07:00,44.1,32.7,30.21,West,273,5.0,9.0,64,-99.99,,,-99.99,0.0,meteohub,2013-10-28 23:07:00,
2013-10-28 19:12:00,43.9,32.9,30.21,West,267,9.0,9.0,65,-99.99,,,-99.99,0.0,meteohub,2013-10-28 23:12:00,
2013-10-28 19:17:00,43.9,32.9,30.21,West,267,6.0,9.0,65,-99.99,,,-99.99,0.0,meteohub,2013-10-28 23:17:00,
2013-10-28 19:22:00,43.9,32.5,30.22,WSW,256,6.0,9.0,64,-99.99,,,-99.99,0.0,meteohub,2013-10-28 23:22:00,
2013-10-28 19:27:00,43.5,32.5,30.22,West,263,4.0,9.0,65,-99.99,,,-99.99,0.0,meteohub,2013-10-28 23:27:00,
2013-10-28 19:32:00,43.5,32.5,30.22,West,261,5.0,7.0,65,-99.99,,,-99.99,0.0,meteohub,2013-10-28 23:32:00,
2013-10-28 19:37:00,43.3,32.4,30.22,West,262,5.0,7.0,65,-99.99,,,-99.99,0.0,meteohub,2013-10-28 23:37:00,
2013-10-28 19:42:00,43.3,33.1,30.23,WSW,257,6.0,8.0,67,-99.99,,,-99.99,0.0,meteohub,2013-10-28 23:42:00,
2013-10-28 19:47:00,43.3,33.1,30.23,WSW,258,7.0,8.0,67,-99.99,,,-99.99,0.0,meteohub,2013-10-28 23:47:00,
2013-10-28 19:52:00,43.2,32.5,30.23,WSW,257,5.0,9.0,66,-99.99,,,-99.99,0.0,meteohub,2013-10-28 23:52:00,
2013-10-28 19:57:00,43.2,33.3,30.23,WSW,256,9.0,9.0,68,-99.99,,,-99.99,0.0,meteohub,2013-10-28 23:57:00,
2013-10-28 20:02:00,43.0,33.1,30.24,West,265,6.0,12.0,68,-99.99,,,-99.99,0.0,meteohub,2013-10-29 00:02:00,
2013-10-28 20:07:00,43.0,31.6,30.24,WSW,257,5.0,12.0,64,-99.99,,,-99.99,0.0,meteohub,2013-10-29 00:07:00,
2013-10-28 20:12:00,42.6,32.7,30.24,West,265,5.0,15.0,68,-99.99,,,-99.99,0.0,meteohub,2013-10-29 00:12:00,
2013-10-28 20:17:00,42.6,32.4,30.24,WSW,251,6.0,15.0,67,-99.99,,,-99.99,0.0,meteohub,2013-10-29 00:17:00,
2013-10-28 20:22:00,42.4,32.7,30.25,WSW,257,5.0,13.0,68,-99.99,,,-99.99,0.0,meteohub,2013-10-29 00:22:00,
2013-10-28 20:27:00,42.3,32.5,30.25,WSW,250,5.0,9.0,68,-99.99,,,-99.99,0.0,meteohub,2013-10-29 00:27:00,
2013-10-28 20:32:00,42.1,31.5,30.25,WSW,257,5.0,9.0,66,-99.99,,,-99.99,0.0,meteohub,2013-10-29 00:32:00,
2013-10-28 20:37:00,41.9,31.5,30.25,WSW,257,7.0,10.0,66,-99.99,,,-99.99,0.0,meteohub,2013-10-29 00:37:00,
2013-10-28 20:42:00,42.1,32.0,30.25,West,264,3.0,10.0,67,-99.99,,,-99.99,0.0,meteohub,2013-10-29 00:42:00,
2013-10-28 20:47:00,41.7,31.3,30.26,WSW,255,6.0,10.0,66,-99.99,,,-99.99,0.0,meteohub,2013-10-29 00:47:00,
2013-10-28 20:53:00,41.7,30.7,30.26,West,267,7.0,12.0,65,-99.99,,,-99.99,0.0,meteohub,2013-10-29 00:53:00,
2013-10-28 20:58:00,41.5,31.5,30.27,West,264,4.0,12.0,67,-99.99,,,-99.99,0.0,meteohub,2013-10-29 00:58:00,
2013-10-28 21:03:00,41.5,30.7,30.27,WSW,253,6.0,12.0,65,-99.99,,,-99.99,0.0,meteohub,2013-10-29 01:03:00,
2013-10-28 21:08:00,41.4,30.9,30.27,West,266,6.0,11.0,66,-99.99,,,-99.99,0.0,meteohub,2013-10-29 01:08:00,
2013-10-28 21:13:00,41.2,30.7,30.27,West,259,7.0,11.0,66,-99.99,,,-99.99,0.0,meteohub,2013-10-29 01:13:00,
2013-10-28 21:18:00,41.2,31.5,30.27,WSW,250,8.0,10.0,68,-99.99,,,-99.99,0.0,meteohub,2013-10-29 01:18:00,
2013-10-28 21:23:00,41.0,31.3,30.28,West,259,4.0,10.0,68,-99.99,,,-99.99,0.0,meteohub,2013-10-29 01:23:00,
2013-10-28 21:29:00,40.8,31.1,30.28,West,264,3.0,10.0,68,-99.99,,,-99.99,0.0,meteohub,2013-10-29 01:29:00,
2013-10-28 21:34:00,40.6,30.9,30.28,West,264,6.0,9.0,68,-99.99,,,-99.99,0.0,meteohub,2013-10-29 01:34:00,
2013-10-28 21:39:00,40.5,30.7,30.28,West,275,7.0,7.0,68,-99.99,,,-99.99,0.0,meteohub,2013-10-29 01:39:00,
2013-10-28 21:44:00,40.5,31.1,30.29,West,260,3.0,7.0,69,-99.99,,,-99.99,0.0,meteohub,2013-10-29 01:44:00,
2013-10-28 21:49:00,40.3,30.6,30.29,WSW,253,7.0,8.0,68,-99.99,,,-99.99,0.0,meteohub,2013-10-29 01:49:00,
2013-10-28 21:55:00,40.5,31.1,30.28,West,259,3.0,8.0,69,-99.99,,,-99.99,0.0,meteohub,2013-10-29 01:55:00,
2013-10-28 22:00:00,40.3,30.9,30.29,WSW,257,6.0,8.0,69,-99.99,,,-99.99,0.0,meteohub,2013-10-29 02:00:00,
2013-10-28 22:05:00,40.3,31.3,30.29,West,280,3.0,8.0,70,-99.99,,,-99.99,0.0,meteohub,2013-10-29 02:05:00,
2013-10-28 22:10:00,40.5,31.1,30.29,West,260,7.0,14.0,69,-99.99,,,-99.99,0.0,meteohub,2013-10-29 02:10:00,
2013-10-28 22:16:00,40.5,31.1,30.29,West,268,9.0,14.0,69,-99.99,,,-99.99,0.0,meteohub,2013-10-29 02:16:00,
2013-10-28 22:22:00,40.5,31.5,30.30,West,275,3.0,14.0,70,-99.99,,,-99.99,0.0,meteohub,2013-10-29 02:22:00,
2013-10-28 22:27:00,40.5,31.8,30.30,West,259,5.0,11.0,71,-99.99,,,-99.99,0.0,meteohub,2013-10-29 02:27:00,
2013-10-28 22:32:00,40.3,30.9,30.30,West,259,6.0,11.0,69,-99.99,,,-99.99,0.0,meteohub,2013-10-29 02:32:00,
2013-10-28 22:37:00,40.1,30.4,30.30,West,269,4.0,9.0,68,-99.99,,,-99.99,0.0,meteohub,2013-10-29 02:37:00,
2013-10-28 22:42:00,39.9,30.9,30.30,West,262,5.0,12.0,70,-99.99,,,-99.99,0.0,meteohub,2013-10-29 02:42:00,
2013-10-28 22:47:00,39.9,30.9,30.30,West,267,6.0,12.0,70,-99.99,,,-99.99,0.0,meteohub,2013-10-29 02:47:00,
2013-10-28 22:52:00,39.7,30.4,30.30,WSW,258,6.0,12.0,69,-99.99,,,-99.99,0.0,meteohub,2013-10-29 02:52:00,
2013-10-28 22:57:00,39.7,30.7,30.30,West,265,5.0,10.0,70,-99.99,,,-99.99,0.0,meteohub,2013-10-29 02:57:00,
2013-10-28 23:02:00,39.6,30.9,30.30,WSW,256,8.0,9.0,71,-99.99,,,-99.99,0.0,meteohub,2013-10-29 03:02:00,
2013-10-28 23:07:00,39.7,31.1,30.31,West,281,6.0,9.0,71,-99.99,,,-99.99,0.0,meteohub,2013-10-29 03:07:00,
2013-10-28 23:12:00,39.6,30.6,30.30,West,259,6.0,9.0,70,-99.99,,,-99.99,0.0,meteohub,2013-10-29 03:12:00,
2013-10-28 23:17:00,39.4,30.7,30.30,WSW,254,6.0,9.0,71,-99.99,,,-99.99,0.0,meteohub,2013-10-29 03:17:00,
2013-10-28 23:22:00,39.2,30.9,30.31,West,272,2.0,9.0,72,-99.99,,,-99.99,0.0,meteohub,2013-10-29 03:22:00,
2013-10-28 23:27:00,39.0,30.4,30.31,West,272,2.0,8.0,71,-99.99,,,-99.99,0.0,meteohub,2013-10-29 03:27:00,
2013-10-28 23:32:00,39.0,30.7,30.31,West,262,5.0,8.0,72,-99.99,,,-99.99,0.0,meteohub,2013-10-29 03:32:00,
2013-10-28 23:37:00,38.8,30.2,30.31,West,269,2.0,7.0,71,-99.99,,,-99.99,0.0,meteohub,2013-10-29 03:37:00,
2013-10-28 23:42:00,38.8,30.6,30.31,WSW,251,4.0,7.0,72,-99.99,,,-99.99,0.0,meteohub,2013-10-29 03:42:00,
2013-10-28 23:47:00,38.8,30.6,30.31,West,265,4.0,7.0,72,-99.99,,,-99.99,0.0,meteohub,2013-10-29 03:47:00,
2013-10-28 23:52:00,38.8,30.9,30.32,West,269,3.0,7.0,73,-99.99,,,-99.99,0.0,meteohub,2013-10-29 03:52:00,
2013-10-28 23:57:00,38.7,30.7,30.31,West,265,5.0,7.0,73,-99.99,,,-99.99,0.0,meteohub,2013-10-29 03:57:00,